Aneth, Utah
Current Conditions -  °F | °C
As of 10:55 PM on Tuesday 21 Oct 2014 (Local Time) from KBDG Reporting Station
Clear Clear  
Wind Chill: 51°   Ceiling: Unl
Heat Index: 51°   Visibility: 10mi
Dew Point: 39°   Wind: 8mph
Humidity: 62%   Direction: 30°NNE
Pressure: 30.13"   Gusts: NA
Location:  37.22°N, 109.19°W
Report Text: KBDG 220455Z AUTO 03007KT 10SM CLR 11/04 A3013 RMK AO1 T01060037
Loading
Personal Weather Stations






























Interactive Weather Map
Tropical Storm Tracking
New forecast layout! Learn more

10-Day Weather Forecast

Advertisements
Track Severe Weather on mobile